sensor_id;sensor_type;location;lat;lon;timestamp;P1;durP1;ratioP1;P2;durP2;ratioP2
60076;SDS011;45950;45.208;20.374;2022-12-13T00:01:31;40.13;;;22.67;;
60076;SDS011;45950;45.208;20.374;2022-12-13T00:04:08;40.60;;;22.77;;
60076;SDS011;45950;45.208;20.374;2022-12-13T00:06:38;39.63;;;21.77;;
60076;SDS011;45950;45.208;20.374;2022-12-13T00:09:05;30.20;;;17.30;;
60076;SDS011;45950;45.208;20.374;2022-12-13T00:11:36;39.43;;;21.07;;
60076;SDS011;45950;45.208;20.374;2022-12-13T00:14:04;41.07;;;21.33;;
60076;SDS011;45950;45.208;20.374;2022-12-13T00:16:32;41.33;;;22.07;;
60076;SDS011;45950;45.208;20.374;2022-12-13T00:19:02;43.90;;;22.67;;
60076;SDS011;45950;45.208;20.374;2022-12-13T00:21:30;37.73;;;21.73;;
60076;SDS011;45950;45.208;20.374;2022-12-13T00:23:58;34.83;;;17.53;;
60076;SDS011;45950;45.208;20.374;2022-12-13T00:32:35;29.97;;;16.50;;
60076;SDS011;45950;45.208;20.374;2022-12-13T00:35:02;27.30;;;15.40;;
60076;SDS011;45950;45.208;20.374;2022-12-13T00:37:30;28.50;;;15.00;;
60076;SDS011;45950;45.208;20.374;2022-12-13T00:39:57;27.47;;;14.80;;
60076;SDS011;45950;45.208;20.374;2022-12-13T00:42:24;27.50;;;15.23;;
60076;SDS011;45950;45.208;20.374;2022-12-13T00:44:51;25.53;;;14.97;;
60076;SDS011;45950;45.208;20.374;2022-12-13T00:47:19;26.20;;;13.63;;
60076;SDS011;45950;45.208;20.374;2022-12-13T00:52:51;29.93;;;15.40;;
60076;SDS011;45950;45.208;20.374;2022-12-13T00:55:18;25.10;;;14.77;;
60076;SDS011;45950;45.208;20.374;2022-12-13T00:57:48;28.50;;;14.37;;
60076;SDS011;45950;45.208;20.374;2022-12-13T01:00:15;25.40;;;13.83;;
60076;SDS011;45950;45.208;20.374;2022-12-13T01:02:44;23.40;;;13.33;;
60076;SDS011;45950;45.208;20.374;2022-12-13T01:05:14;26.00;;;14.63;;
60076;SDS011;45950;45.208;20.374;2022-12-13T01:10:45;24.87;;;14.30;;
60076;SDS011;45950;45.208;20.374;2022-12-13T01:13:12;20.90;;;13.70;;
60076;SDS011;45950;45.208;20.374;2022-12-13T01:15:40;24.50;;;13.53;;
60076;SDS011;45950;45.208;20.374;2022-12-13T01:18:07;23.60;;;12.97;;
60076;SDS011;45950;45.208;20.374;2022-12-13T01:20:35;28.40;;;15.10;;
60076;SDS011;45950;45.208;20.374;2022-12-13T01:23:05;24.30;;;12.63;;
60076;SDS011;45950;45.208;20.374;2022-12-13T01:25:32;22.83;;;13.60;;
60076;SDS011;45950;45.208;20.374;2022-12-13T01:28:00;29.07;;;14.80;;
60076;SDS011;45950;45.208;20.374;2022-12-13T01:30:31;20.90;;;12.93;;
60076;SDS011;45950;45.208;20.374;2022-12-13T01:36:02;22.53;;;13.60;;
60076;SDS011;45950;45.208;20.374;2022-12-13T01:38:29;31.27;;;16.30;;
60076;SDS011;45950;45.208;20.374;2022-12-13T01:40:57;29.80;;;16.83;;
60076;SDS011;45950;45.208;20.374;2022-12-13T01:43:27;26.53;;;15.20;;
60076;SDS011;45950;45.208;20.374;2022-12-13T01:45:54;26.77;;;16.07;;
60076;SDS011;45950;45.208;20.374;2022-12-13T01:48:25;25.17;;;14.50;;
60076;SDS011;45950;45.208;20.374;2022-12-13T01:50:52;26.63;;;15.40;;
60076;SDS011;45950;45.208;20.374;2022-12-13T01:53:23;24.33;;;13.93;;
60076;SDS011;45950;45.208;20.374;2022-12-13T01:55:53;27.50;;;14.90;;
60076;SDS011;45950;45.208;20.374;2022-12-13T01:58:21;25.90;;;15.03;;
60076;SDS011;45950;45.208;20.374;2022-12-13T02:00:49;26.20;;;15.90;;
60076;SDS011;45950;45.208;20.374;2022-12-13T02:03:16;25.57;;;12.87;;
60076;SDS011;45950;45.208;20.374;2022-12-13T02:05:45;25.43;;;15.07;;
60076;SDS011;45950;45.208;20.374;2022-12-13T02:08:18;26.80;;;15.87;;
60076;SDS011;45950;45.208;20.374;2022-12-13T02:10:45;26.40;;;15.70;;
60076;SDS011;45950;45.208;20.374;2022-12-13T02:13:12;30.73;;;17.23;;
60076;SDS011;45950;45.208;20.374;2022-12-13T02:15:41;31.83;;;17.87;;
60076;SDS011;45950;45.208;20.374;2022-12-13T02:21:09;28.77;;;15.87;;
60076;SDS011;45950;45.208;20.374;2022-12-13T02:23:53;26.00;;;14.33;;
60076;SDS011;45950;45.208;20.374;2022-12-13T02:32:21;29.37;;;15.87;;
60076;SDS011;45950;45.208;20.374;2022-12-13T02:34:53;33.67;;;17.45;;
60076;SDS011;45950;45.208;20.374;2022-12-13T02:37:22;33.00;;;18.63;;
60076;SDS011;45950;45.208;20.374;2022-12-13T02:39:52;36.43;;;20.07;;
60076;SDS011;45950;45.208;20.374;2022-12-13T02:42:22;30.87;;;17.13;;
60076;SDS011;45950;45.208;20.374;2022-12-13T02:44:51;31.13;;;16.40;;
60076;SDS011;45950;45.208;20.374;2022-12-13T02:47:22;31.33;;;17.37;;
60076;SDS011;45950;45.208;20.374;2022-12-13T02:49:51;32.30;;;19.83;;
60076;SDS011;45950;45.208;20.374;2022-12-13T02:52:20;37.33;;;20.07;;
60076;SDS011;45950;45.208;20.374;2022-12-13T02:57:30;33.63;;;19.87;;
60076;SDS011;45950;45.208;20.374;2022-12-13T02:59:58;31.88;;;15.93;;
60076;SDS011;45950;45.208;20.374;2022-12-13T03:05:32;35.60;;;19.77;;
60076;SDS011;45950;45.208;20.374;2022-12-13T03:08:20;32.30;;;17.00;;
60076;SDS011;45950;45.208;20.374;2022-12-13T03:10:51;35.80;;;19.37;;
60076;SDS011;45950;45.208;20.374;2022-12-13T03:16:26;31.87;;;17.03;;
60076;SDS011;45950;45.208;20.374;2022-12-13T03:18:54;26.93;;;15.77;;
60076;SDS011;45950;45.208;20.374;2022-12-13T03:21:27;28.07;;;15.97;;
60076;SDS011;45950;45.208;20.374;2022-12-13T03:26:51;31.23;;;18.30;;
60076;SDS011;45950;45.208;20.374;2022-12-13T03:29:18;30.50;;;17.10;;
60076;SDS011;45950;45.208;20.374;2022-12-13T03:34:50;24.67;;;15.43;;
60076;SDS011;45950;45.208;20.374;2022-12-13T03:37:20;35.33;;;19.13;;
60076;SDS011;45950;45.208;20.374;2022-12-13T03:39:47;32.00;;;16.40;;
60076;SDS011;45950;45.208;20.374;2022-12-13T03:42:14;25.80;;;14.37;;
60076;SDS011;45950;45.208;20.374;2022-12-13T03:44:42;27.33;;;15.57;;
60076;SDS011;45950;45.208;20.374;2022-12-13T03:47:09;30.73;;;17.37;;
60076;SDS011;45950;45.208;20.374;2022-12-13T03:49:38;26.80;;;15.47;;
60076;SDS011;45950;45.208;20.374;2022-12-13T03:52:05;24.37;;;14.50;;
60076;SDS011;45950;45.208;20.374;2022-12-13T03:54:34;31.43;;;19.10;;
60076;SDS011;45950;45.208;20.374;2022-12-13T03:57:01;29.97;;;16.57;;
60076;SDS011;45950;45.208;20.374;2022-12-13T03:59:29;35.03;;;18.00;;
60076;SDS011;45950;45.208;20.374;2022-12-13T04:01:56;37.53;;;21.20;;
60076;SDS011;45950;45.208;20.374;2022-12-13T04:04:23;74.17;;;34.80;;
60076;SDS011;45950;45.208;20.374;2022-12-13T04:06:49;60.50;;;30.73;;
60076;SDS011;45950;45.208;20.374;2022-12-13T04:09:17;57.73;;;28.83;;
60076;SDS011;45950;45.208;20.374;2022-12-13T04:11:46;59.03;;;29.57;;
60076;SDS011;45950;45.208;20.374;2022-12-13T04:14:30;53.80;;;29.13;;
60076;SDS011;45950;45.208;20.374;2022-12-13T04:16:57;58.37;;;29.80;;
60076;SDS011;45950;45.208;20.374;2022-12-13T04:19:24;54.40;;;28.27;;
60076;SDS011;45950;45.208;20.374;2022-12-13T04:21:54;42.93;;;22.97;;
60076;SDS011;45950;45.208;20.374;2022-12-13T04:24:21;36.97;;;21.23;;
60076;SDS011;45950;45.208;20.374;2022-12-13T04:26:51;44.23;;;21.90;;
60076;SDS011;45950;45.208;20.374;2022-12-13T04:29:18;58.90;;;31.03;;
60076;SDS011;45950;45.208;20.374;2022-12-13T04:31:46;65.43;;;34.10;;
60076;SDS011;45950;45.208;20.374;2022-12-13T04:40:20;82.43;;;39.00;;
60076;SDS011;45950;45.208;20.374;2022-12-13T04:42:48;71.10;;;36.97;;
60076;SDS011;45950;45.208;20.374;2022-12-13T04:45:16;65.00;;;33.23;;
60076;SDS011;45950;45.208;20.374;2022-12-13T04:47:43;60.60;;;33.70;;
60076;SDS011;45950;45.208;20.374;2022-12-13T04:50:10;67.17;;;35.07;;
60076;SDS011;45950;45.208;20.374;2022-12-13T04:52:40;60.47;;;31.03;;
60076;SDS011;45950;45.208;20.374;2022-12-13T04:55:07;75.47;;;37.10;;
60076;SDS011;45950;45.208;20.374;2022-12-13T04:57:36;140.97;;;56.87;;
60076;SDS011;45950;45.208;20.374;2022-12-13T05:00:05;91.87;;;43.10;;
60076;SDS011;45950;45.208;20.374;2022-12-13T05:02:35;53.80;;;27.43;;
60076;SDS011;45950;45.208;20.374;2022-12-13T05:05:01;64.20;;;32.27;;
60076;SDS011;45950;45.208;20.374;2022-12-13T05:07:28;58.57;;;26.30;;
60076;SDS011;45950;45.208;20.374;2022-12-13T05:09:55;49.43;;;24.33;;
60076;SDS011;45950;45.208;20.374;2022-12-13T05:12:24;58.63;;;28.90;;
60076;SDS011;45950;45.208;20.374;2022-12-13T05:14:51;51.53;;;26.50;;
60076;SDS011;45950;45.208;20.374;2022-12-13T05:17:20;53.70;;;29.20;;
60076;SDS011;45950;45.208;20.374;2022-12-13T05:22:50;83.87;;;39.47;;
60076;SDS011;45950;45.208;20.374;2022-12-13T05:25:17;94.37;;;43.23;;
60076;SDS011;45950;45.208;20.374;2022-12-13T05:27:46;70.93;;;36.13;;
60076;SDS011;45950;45.208;20.374;2022-12-13T05:30:15;60.37;;;31.17;;
60076;SDS011;45950;45.208;20.374;2022-12-13T05:32:45;60.97;;;31.10;;
60076;SDS011;45950;45.208;20.374;2022-12-13T05:35:12;58.93;;;30.67;;
60076;SDS011;45950;45.208;20.374;2022-12-13T05:37:39;79.63;;;35.80;;
60076;SDS011;45950;45.208;20.374;2022-12-13T05:40:07;96.70;;;41.87;;
60076;SDS011;45950;45.208;20.374;2022-12-13T05:42:38;80.67;;;37.20;;
60076;SDS011;45950;45.208;20.374;2022-12-13T05:48:10;76.70;;;34.20;;
60076;SDS011;45950;45.208;20.374;2022-12-13T05:50:37;69.07;;;34.00;;
60076;SDS011;45950;45.208;20.374;2022-12-13T05:53:05;67.00;;;36.23;;
60076;SDS011;45950;45.208;20.374;2022-12-13T05:55:32;80.70;;;40.93;;
60076;SDS011;45950;45.208;20.374;2022-12-13T05:57:59;80.67;;;41.07;;
60076;SDS011;45950;45.208;20.374;2022-12-13T06:00:26;73.33;;;38.57;;
60076;SDS011;45950;45.208;20.374;2022-12-13T06:02:53;76.90;;;38.63;;
60076;SDS011;45950;45.208;20.374;2022-12-13T06:05:23;66.13;;;35.70;;
60076;SDS011;45950;45.208;20.374;2022-12-13T06:07:52;74.60;;;37.87;;
60076;SDS011;45950;45.208;20.374;2022-12-13T06:10:20;70.53;;;38.30;;
60076;SDS011;45950;45.208;20.374;2022-12-13T06:12:48;68.47;;;39.43;;
60076;SDS011;45950;45.208;20.374;2022-12-13T06:15:24;65.13;;;37.50;;
60076;SDS011;45950;45.208;20.374;2022-12-13T06:18:05;66.83;;;39.33;;
60076;SDS011;45950;45.208;20.374;2022-12-13T06:20:36;65.70;;;35.90;;
60076;SDS011;45950;45.208;20.374;2022-12-13T06:23:20;91.07;;;45.13;;
60076;SDS011;45950;45.208;20.374;2022-12-13T06:25:47;87.37;;;44.20;;
60076;SDS011;45950;45.208;20.374;2022-12-13T06:28:14;82.07;;;43.17;;
60076;SDS011;45950;45.208;20.374;2022-12-13T06:30:51;80.77;;;41.87;;
60076;SDS011;45950;45.208;20.374;2022-12-13T06:33:23;64.80;;;34.87;;
60076;SDS011;45950;45.208;20.374;2022-12-13T06:36:01;67.40;;;38.67;;
60076;SDS011;45950;45.208;20.374;2022-12-13T06:41:22;79.20;;;44.60;;
60076;SDS011;45950;45.208;20.374;2022-12-13T06:43:50;79.77;;;45.67;;
60076;SDS011;45950;45.208;20.374;2022-12-13T06:46:16;84.67;;;45.03;;
60076;SDS011;45950;45.208;20.374;2022-12-13T06:48:43;85.00;;;45.03;;
60076;SDS011;45950;45.208;20.374;2022-12-13T06:51:11;76.27;;;41.27;;
60076;SDS011;45950;45.208;20.374;2022-12-13T06:53:40;85.73;;;43.53;;
60076;SDS011;45950;45.208;20.374;2022-12-13T06:56:08;76.80;;;38.87;;
60076;SDS011;45950;45.208;20.374;2022-12-13T06:58:36;80.30;;;40.90;;
60076;SDS011;45950;45.208;20.374;2022-12-13T07:01:07;72.03;;;38.23;;
60076;SDS011;45950;45.208;20.374;2022-12-13T07:03:35;71.63;;;38.77;;
60076;SDS011;45950;45.208;20.374;2022-12-13T07:06:03;71.13;;;36.13;;
60076;SDS011;45950;45.208;20.374;2022-12-13T07:08:33;70.20;;;37.97;;
60076;SDS011;45950;45.208;20.374;2022-12-13T07:11:02;68.70;;;37.20;;
60076;SDS011;45950;45.208;20.374;2022-12-13T07:13:29;58.17;;;34.10;;
60076;SDS011;45950;45.208;20.374;2022-12-13T07:15:58;69.27;;;36.17;;
60076;SDS011;45950;45.208;20.374;2022-12-13T07:18:27;71.13;;;37.17;;
60076;SDS011;45950;45.208;20.374;2022-12-13T07:20:54;57.00;;;31.03;;
60076;SDS011;45950;45.208;20.374;2022-12-13T07:23:21;71.87;;;37.83;;
60076;SDS011;45950;45.208;20.374;2022-12-13T07:25:53;74.97;;;41.73;;
60076;SDS011;45950;45.208;20.374;2022-12-13T07:28:21;95.10;;;49.23;;
60076;SDS011;45950;45.208;20.374;2022-12-13T07:30:48;75.37;;;41.67;;
60076;SDS011;45950;45.208;20.374;2022-12-13T07:33:15;70.10;;;37.93;;
60076;SDS011;45950;45.208;20.374;2022-12-13T07:35:41;67.83;;;34.10;;
60076;SDS011;45950;45.208;20.374;2022-12-13T07:38:09;75.47;;;40.93;;
60076;SDS011;45950;45.208;20.374;2022-12-13T07:40:37;62.90;;;37.63;;
60076;SDS011;45950;45.208;20.374;2022-12-13T07:43:05;86.67;;;47.10;;
60076;SDS011;45950;45.208;20.374;2022-12-13T07:45:32;170.53;;;83.57;;
60076;SDS011;45950;45.208;20.374;2022-12-13T07:48:02;102.57;;;58.10;;
60076;SDS011;45950;45.208;20.374;2022-12-13T07:50:28;99.17;;;52.53;;
60076;SDS011;45950;45.208;20.374;2022-12-13T07:52:56;87.93;;;47.23;;
60076;SDS011;45950;45.208;20.374;2022-12-13T07:55:23;88.70;;;51.00;;
60076;SDS011;45950;45.208;20.374;2022-12-13T07:57:50;75.90;;;43.37;;
60076;SDS011;45950;45.208;20.374;2022-12-13T08:00:19;69.33;;;41.13;;
60076;SDS011;45950;45.208;20.374;2022-12-13T08:02:46;77.83;;;44.77;;
60076;SDS011;45950;45.208;20.374;2022-12-13T08:05:13;75.40;;;40.87;;
60076;SDS011;45950;45.208;20.374;2022-12-13T08:07:40;76.87;;;41.33;;
60076;SDS011;45950;45.208;20.374;2022-12-13T08:10:07;64.73;;;39.00;;
60076;SDS011;45950;45.208;20.374;2022-12-13T08:12:34;74.47;;;40.87;;
60076;SDS011;45950;45.208;20.374;2022-12-13T08:15:03;75.13;;;41.43;;
60076;SDS011;45950;45.208;20.374;2022-12-13T08:17:32;93.90;;;55.73;;
60076;SDS011;45950;45.208;20.374;2022-12-13T08:20:00;66.07;;;39.77;;
60076;SDS011;45950;45.208;20.374;2022-12-13T08:22:30;69.30;;;40.47;;
60076;SDS011;45950;45.208;20.374;2022-12-13T08:24:57;67.33;;;37.37;;
60076;SDS011;45950;45.208;20.374;2022-12-13T08:29:59;64.10;;;36.20;;
60076;SDS011;45950;45.208;20.374;2022-12-13T08:32:33;67.10;;;37.53;;
60076;SDS011;45950;45.208;20.374;2022-12-13T08:37:47;77.30;;;43.42;;
60076;SDS011;45950;45.208;20.374;2022-12-13T08:40:14;66.17;;;36.50;;
60076;SDS011;45950;45.208;20.374;2022-12-13T08:45:48;66.63;;;36.17;;
60076;SDS011;45950;45.208;20.374;2022-12-13T08:48:17;65.23;;;35.63;;
60076;SDS011;45950;45.208;20.374;2022-12-13T08:50:47;63.97;;;35.10;;
60076;SDS011;45950;45.208;20.374;2022-12-13T08:53:15;73.47;;;38.27;;
60076;SDS011;45950;45.208;20.374;2022-12-13T08:55:42;61.87;;;35.63;;
60076;SDS011;45950;45.208;20.374;2022-12-13T08:58:10;58.63;;;32.70;;
60076;SDS011;45950;45.208;20.374;2022-12-13T09:00:45;59.53;;;33.00;;
60076;SDS011;45950;45.208;20.374;2022-12-13T09:03:13;64.33;;;34.77;;
60076;SDS011;45950;45.208;20.374;2022-12-13T09:05:42;64.67;;;33.53;;
60076;SDS011;45950;45.208;20.374;2022-12-13T09:08:10;55.37;;;31.60;;
60076;SDS011;45950;45.208;20.374;2022-12-13T09:10:38;61.10;;;34.13;;
60076;SDS011;45950;45.208;20.374;2022-12-13T09:13:06;54.67;;;30.13;;
60076;SDS011;45950;45.208;20.374;2022-12-13T09:15:37;59.27;;;32.67;;
60076;SDS011;45950;45.208;20.374;2022-12-13T09:18:04;54.70;;;29.33;;
60076;SDS011;45950;45.208;20.374;2022-12-13T09:20:32;43.40;;;24.73;;
60076;SDS011;45950;45.208;20.374;2022-12-13T09:23:03;44.93;;;26.17;;
60076;SDS011;45950;45.208;20.374;2022-12-13T09:25:30;52.73;;;29.20;;
60076;SDS011;45950;45.208;20.374;2022-12-13T09:31:00;49.27;;;27.13;;
60076;SDS011;45950;45.208;20.374;2022-12-13T09:33:27;44.50;;;26.73;;
60076;SDS011;45950;45.208;20.374;2022-12-13T09:35:54;49.80;;;29.00;;
60076;SDS011;45950;45.208;20.374;2022-12-13T09:38:22;45.87;;;25.40;;
60076;SDS011;45950;45.208;20.374;2022-12-13T09:40:49;43.33;;;26.40;;
60076;SDS011;45950;45.208;20.374;2022-12-13T09:43:18;49.30;;;26.53;;
60076;SDS011;45950;45.208;20.374;2022-12-13T09:45:47;49.33;;;29.63;;
60076;SDS011;45950;45.208;20.374;2022-12-13T09:48:15;53.03;;;28.53;;
60076;SDS011;45950;45.208;20.374;2022-12-13T09:50:43;47.80;;;28.43;;
60076;SDS011;45950;45.208;20.374;2022-12-13T09:53:10;50.60;;;28.60;;
60076;SDS011;45950;45.208;20.374;2022-12-13T09:55:42;41.90;;;24.67;;
60076;SDS011;45950;45.208;20.374;2022-12-13T09:58:11;47.07;;;27.50;;
60076;SDS011;45950;45.208;20.374;2022-12-13T10:00:39;48.07;;;27.23;;
60076;SDS011;45950;45.208;20.374;2022-12-13T10:03:09;37.97;;;21.43;;
60076;SDS011;45950;45.208;20.374;2022-12-13T10:05:38;33.67;;;21.10;;
60076;SDS011;45950;45.208;20.374;2022-12-13T10:08:06;41.23;;;22.13;;
60076;SDS011;45950;45.208;20.374;2022-12-13T10:10:36;38.28;;;21.60;;
60076;SDS011;45950;45.208;20.374;2022-12-13T10:13:07;31.03;;;17.53;;
60076;SDS011;45950;45.208;20.374;2022-12-13T10:15:35;39.17;;;21.67;;
60076;SDS011;45950;45.208;20.374;2022-12-13T10:18:04;28.97;;;17.03;;
60076;SDS011;45950;45.208;20.374;2022-12-13T10:20:32;29.43;;;16.77;;
60076;SDS011;45950;45.208;20.374;2022-12-13T10:22:58;26.38;;;16.30;;
60076;SDS011;45950;45.208;20.374;2022-12-13T10:25:45;36.07;;;21.27;;
60076;SDS011;45950;45.208;20.374;2022-12-13T10:28:13;37.13;;;21.63;;
60076;SDS011;45950;45.208;20.374;2022-12-13T10:30:41;39.38;;;20.23;;
60076;SDS011;45950;45.208;20.374;2022-12-13T10:33:18;30.92;;;17.77;;
60076;SDS011;45950;45.208;20.374;2022-12-13T10:36:00;36.25;;;18.95;;
60076;SDS011;45950;45.208;20.374;2022-12-13T10:38:36;35.75;;;19.17;;
60076;SDS011;45950;45.208;20.374;2022-12-13T10:46:42;32.85;;;20.20;;
60076;SDS011;45950;45.208;20.374;2022-12-13T10:49:16;36.50;;;22.45;;
60076;SDS011;45950;45.208;20.374;2022-12-13T10:51:44;42.40;;;24.60;;
60076;SDS011;45950;45.208;20.374;2022-12-13T10:57:01;38.78;;;22.10;;
60076;SDS011;45950;45.208;20.374;2022-12-13T10:59:44;78.03;;;33.63;;
60076;SDS011;45950;45.208;20.374;2022-12-13T11:02:32;50.47;;;26.13;;
60076;SDS011;45950;45.208;20.374;2022-12-13T11:05:20;51.05;;;27.65;;
60076;SDS011;45950;45.208;20.374;2022-12-13T11:07:49;43.25;;;25.50;;
60076;SDS011;45950;45.208;20.374;2022-12-13T11:10:21;43.75;;;23.60;;
60076;SDS011;45950;45.208;20.374;2022-12-13T11:13:01;41.85;;;24.23;;
60076;SDS011;45950;45.208;20.374;2022-12-13T11:15:50;38.10;;;23.63;;
60076;SDS011;45950;45.208;20.374;2022-12-13T11:18:30;37.20;;;22.17;;
60076;SDS011;45950;45.208;20.374;2022-12-13T11:21:06;40.47;;;23.10;;
60076;SDS011;45950;45.208;20.374;2022-12-13T11:23:33;32.33;;;21.15;;
60076;SDS011;45950;45.208;20.374;2022-12-13T11:26:04;29.70;;;17.08;;
60076;SDS011;45950;45.208;20.374;2022-12-13T11:28:35;34.90;;;20.08;;
60076;SDS011;45950;45.208;20.374;2022-12-13T11:31:07;33.15;;;20.30;;
60076;SDS011;45950;45.208;20.374;2022-12-13T11:33:38;37.42;;;20.90;;
60076;SDS011;45950;45.208;20.374;2022-12-13T11:36:10;38.95;;;21.90;;
60076;SDS011;45950;45.208;20.374;2022-12-13T11:39:13;40.38;;;23.10;;
60076;SDS011;45950;45.208;20.374;2022-12-13T11:41:43;36.85;;;21.77;;
60076;SDS011;45950;45.208;20.374;2022-12-13T11:44:24;31.88;;;18.55;;
60076;SDS011;45950;45.208;20.374;2022-12-13T12:08:49;46.15;;;28.52;;
60076;SDS011;45950;45.208;20.374;2022-12-13T12:11:23;46.97;;;27.55;;
60076;SDS011;45950;45.208;20.374;2022-12-13T12:14:03;42.45;;;26.08;;
60076;SDS011;45950;45.208;20.374;2022-12-13T12:19:24;40.30;;;24.50;;
60076;SDS011;45950;45.208;20.374;2022-12-13T12:25:11;45.85;;;27.38;;
60076;SDS011;45950;45.208;20.374;2022-12-13T12:28:03;41.47;;;24.92;;
60076;SDS011;45950;45.208;20.374;2022-12-13T12:55:29;55.58;;;35.65;;
60076;SDS011;45950;45.208;20.374;2022-12-13T12:58:03;37.05;;;25.00;;
60076;SDS011;45950;45.208;20.374;2022-12-13T13:00:59;38.90;;;23.05;;
60076;SDS011;45950;45.208;20.374;2022-12-13T13:03:34;39.83;;;24.52;;
60076;SDS011;45950;45.208;20.374;2022-12-13T13:06:17;45.80;;;26.73;;
60076;SDS011;45950;45.208;20.374;2022-12-13T13:09:05;46.38;;;29.13;;
60076;SDS011;45950;45.208;20.374;2022-12-13T13:22:52;75.47;;;43.55;;
60076;SDS011;45950;45.208;20.374;2022-12-13T13:25:38;92.82;;;50.03;;
60076;SDS011;45950;45.208;20.374;2022-12-13T13:28:15;85.53;;;48.63;;
60076;SDS011;45950;45.208;20.374;2022-12-13T13:31:02;64.07;;;36.55;;
60076;SDS011;45950;45.208;20.374;2022-12-13T13:33:41;74.47;;;39.55;;
60076;SDS011;45950;45.208;20.374;2022-12-13T13:39:15;66.43;;;39.00;;
60076;SDS011;45950;45.208;20.374;2022-12-13T13:44:34;57.10;;;34.08;;
60076;SDS011;45950;45.208;20.374;2022-12-13T13:47:37;60.58;;;35.35;;
60076;SDS011;45950;45.208;20.374;2022-12-13T13:56:01;72.80;;;41.63;;
60076;SDS011;45950;45.208;20.374;2022-12-13T14:04:20;52.75;;;31.42;;
60076;SDS011;45950;45.208;20.374;2022-12-13T14:07:09;53.08;;;30.83;;
60076;SDS011;45950;45.208;20.374;2022-12-13T14:10:00;51.72;;;31.50;;
60076;SDS011;45950;45.208;20.374;2022-12-13T14:18:42;63.22;;;36.00;;
60076;SDS011;45950;45.208;20.374;2022-12-13T14:24:15;54.85;;;33.35;;
60076;SDS011;45950;45.208;20.374;2022-12-13T14:26:52;50.38;;;30.48;;
60076;SDS011;45950;45.208;20.374;2022-12-13T14:29:22;52.05;;;30.25;;
60076;SDS011;45950;45.208;20.374;2022-12-13T14:31:50;60.20;;;34.75;;
60076;SDS011;45950;45.208;20.374;2022-12-13T14:34:42;59.20;;;34.72;;
60076;SDS011;45950;45.208;20.374;2022-12-13T14:37:20;60.13;;;34.72;;
60076;SDS011;45950;45.208;20.374;2022-12-13T14:42:51;97.30;;;48.15;;
60076;SDS011;45950;45.208;20.374;2022-12-13T14:45:21;88.13;;;45.28;;
60076;SDS011;45950;45.208;20.374;2022-12-13T14:47:55;81.90;;;44.60;;
60076;SDS011;45950;45.208;20.374;2022-12-13T14:50:30;85.47;;;43.45;;
60076;SDS011;45950;45.208;20.374;2022-12-13T14:52:58;69.25;;;39.00;;
60076;SDS011;45950;45.208;20.374;2022-12-13T14:55:28;68.50;;;38.53;;
60076;SDS011;45950;45.208;20.374;2022-12-13T14:57:56;66.55;;;36.58;;
60076;SDS011;45950;45.208;20.374;2022-12-13T15:00:28;68.85;;;36.28;;
60076;SDS011;45950;45.208;20.374;2022-12-13T15:03:00;67.28;;;35.78;;
60076;SDS011;45950;45.208;20.374;2022-12-13T15:05:40;68.13;;;36.83;;
60076;SDS011;45950;45.208;20.374;2022-12-13T15:08:13;70.30;;;41.47;;
60076;SDS011;45950;45.208;20.374;2022-12-13T15:10:44;72.15;;;40.70;;
60076;SDS011;45950;45.208;20.374;2022-12-13T15:13:19;75.80;;;43.08;;
60076;SDS011;45950;45.208;20.374;2022-12-13T15:15:50;85.88;;;45.97;;
60076;SDS011;45950;45.208;20.374;2022-12-13T15:18:18;86.80;;;47.15;;
60076;SDS011;45950;45.208;20.374;2022-12-13T15:20:54;76.18;;;42.75;;
60076;SDS011;45950;45.208;20.374;2022-12-13T15:23:22;79.22;;;41.72;;
60076;SDS011;45950;45.208;20.374;2022-12-13T15:25:54;76.40;;;40.85;;
60076;SDS011;45950;45.208;20.374;2022-12-13T15:28:45;73.55;;;42.88;;
60076;SDS011;45950;45.208;20.374;2022-12-13T15:45:18;119.85;;;58.17;;
60076;SDS011;45950;45.208;20.374;2022-12-13T15:47:47;94.45;;;49.35;;
60076;SDS011;45950;45.208;20.374;2022-12-13T15:50:32;86.72;;;47.65;;
60076;SDS011;45950;45.208;20.374;2022-12-13T15:55:59;85.27;;;45.37;;
60076;SDS011;45950;45.208;20.374;2022-12-13T15:58:26;75.90;;;42.05;;
60076;SDS011;45950;45.208;20.374;2022-12-13T16:00:56;68.47;;;39.07;;
60076;SDS011;45950;45.208;20.374;2022-12-13T16:03:29;69.70;;;39.78;;
60076;SDS011;45950;45.208;20.374;2022-12-13T16:06:01;63.60;;;34.83;;
60076;SDS011;45950;45.208;20.374;2022-12-13T16:08:43;61.30;;;34.97;;
60076;SDS011;45950;45.208;20.374;2022-12-13T16:11:24;62.10;;;34.47;;
60076;SDS011;45950;45.208;20.374;2022-12-13T16:16:49;55.57;;;33.03;;
60076;SDS011;45950;45.208;20.374;2022-12-13T16:19:17;57.50;;;32.80;;
60076;SDS011;45950;45.208;20.374;2022-12-13T16:21:45;66.93;;;36.47;;
60076;SDS011;45950;45.208;20.374;2022-12-13T16:24:16;69.33;;;36.60;;
60076;SDS011;45950;45.208;20.374;2022-12-13T16:26:44;69.40;;;36.50;;
60076;SDS011;45950;45.208;20.374;2022-12-13T16:29:12;63.70;;;36.37;;
60076;SDS011;45950;45.208;20.374;2022-12-13T16:31:40;62.67;;;35.93;;
60076;SDS011;45950;45.208;20.374;2022-12-13T16:34:10;67.73;;;36.80;;
60076;SDS011;45950;45.208;20.374;2022-12-13T16:36:42;68.87;;;38.33;;
60076;SDS011;45950;45.208;20.374;2022-12-13T16:39:09;62.70;;;35.33;;
60076;SDS011;45950;45.208;20.374;2022-12-13T16:41:36;72.97;;;38.40;;
60076;SDS011;45950;45.208;20.374;2022-12-13T16:44:05;74.80;;;39.37;;
60076;SDS011;45950;45.208;20.374;2022-12-13T16:49:37;57.37;;;33.33;;
60076;SDS011;45950;45.208;20.374;2022-12-13T16:52:04;50.37;;;29.77;;
60076;SDS011;45950;45.208;20.374;2022-12-13T16:54:32;50.20;;;29.63;;
60076;SDS011;45950;45.208;20.374;2022-12-13T16:56:59;48.50;;;28.00;;
60076;SDS011;45950;45.208;20.374;2022-12-13T16:59:27;49.13;;;26.97;;
60076;SDS011;45950;45.208;20.374;2022-12-13T17:01:54;44.97;;;26.70;;
60076;SDS011;45950;45.208;20.374;2022-12-13T17:04:22;42.63;;;25.73;;
60076;SDS011;45950;45.208;20.374;2022-12-13T17:09:57;47.67;;;28.43;;
60076;SDS011;45950;45.208;20.374;2022-12-13T17:12:28;48.43;;;28.27;;
60076;SDS011;45950;45.208;20.374;2022-12-13T17:14:55;45.70;;;25.60;;
60076;SDS011;45950;45.208;20.374;2022-12-13T17:17:22;46.73;;;27.10;;
60076;SDS011;45950;45.208;20.374;2022-12-13T17:22:52;44.57;;;26.53;;
60076;SDS011;45950;45.208;20.374;2022-12-13T17:25:20;39.53;;;24.80;;
60076;SDS011;45950;45.208;20.374;2022-12-13T17:27:47;45.17;;;26.93;;
60076;SDS011;45950;45.208;20.374;2022-12-13T17:30:15;44.70;;;26.70;;
60076;SDS011;45950;45.208;20.374;2022-12-13T17:32:42;46.90;;;25.70;;
60076;SDS011;45950;45.208;20.374;2022-12-13T17:38:11;50.20;;;27.73;;
60076;SDS011;45950;45.208;20.374;2022-12-13T17:40:39;50.23;;;27.83;;
60076;SDS011;45950;45.208;20.374;2022-12-13T17:43:06;50.53;;;29.30;;
60076;SDS011;45950;45.208;20.374;2022-12-13T17:45:34;47.73;;;28.23;;
60076;SDS011;45950;45.208;20.374;2022-12-13T17:48:03;48.27;;;27.87;;